sensor_id;sensor_type;location;lat;lon;timestamp;P1;durP1;ratioP1;P2;durP2;ratioP2
15490;SDS011;7847;50.930;4.336;2023-04-26T00:02:02;0.50;;;0.50;;
15490;SDS011;7847;50.930;4.336;2023-04-26T00:04:29;0.50;;;0.50;;
15490;SDS011;7847;50.930;4.336;2023-04-26T00:06:55;0.50;;;0.50;;
15490;SDS011;7847;50.930;4.336;2023-04-26T00:09:21;0.50;;;0.50;;
15490;SDS011;7847;50.930;4.336;2023-04-26T00:11:47;0.47;;;0.47;;
15490;SDS011;7847;50.930;4.336;2023-04-26T00:14:14;0.50;;;0.50;;
15490;SDS011;7847;50.930;4.336;2023-04-26T00:16:40;0.40;;;0.40;;
15490;SDS011;7847;50.930;4.336;2023-04-26T00:19:06;0.50;;;0.50;;
15490;SDS011;7847;50.930;4.336;2023-04-26T00:21:34;0.50;;;0.50;;
15490;SDS011;7847;50.930;4.336;2023-04-26T00:24:01;0.50;;;0.50;;
15490;SDS011;7847;50.930;4.336;2023-04-26T00:26:27;0.50;;;0.50;;
15490;SDS011;7847;50.930;4.336;2023-04-26T00:28:53;0.50;;;0.50;;
15490;SDS011;7847;50.930;4.336;2023-04-26T00:31:20;0.60;;;0.60;;
15490;SDS011;7847;50.930;4.336;2023-04-26T00:33:46;0.50;;;0.50;;
15490;SDS011;7847;50.930;4.336;2023-04-26T00:36:12;0.50;;;0.50;;
15490;SDS011;7847;50.930;4.336;2023-04-26T00:38:39;0.50;;;0.50;;
15490;SDS011;7847;50.930;4.336;2023-04-26T00:41:05;0.50;;;0.50;;
15490;SDS011;7847;50.930;4.336;2023-04-26T00:43:31;0.57;;;0.57;;
15490;SDS011;7847;50.930;4.336;2023-04-26T00:45:57;0.50;;;0.50;;
15490;SDS011;7847;50.930;4.336;2023-04-26T00:48:23;0.50;;;0.50;;
15490;SDS011;7847;50.930;4.336;2023-04-26T00:50:50;0.50;;;0.50;;
15490;SDS011;7847;50.930;4.336;2023-04-26T00:53:16;0.50;;;0.50;;
15490;SDS011;7847;50.930;4.336;2023-04-26T00:55:43;0.50;;;0.50;;
15490;SDS011;7847;50.930;4.336;2023-04-26T00:58:09;0.50;;;0.50;;
15490;SDS011;7847;50.930;4.336;2023-04-26T01:00:35;0.50;;;0.50;;
15490;SDS011;7847;50.930;4.336;2023-04-26T01:03:01;0.60;;;0.60;;
15490;SDS011;7847;50.930;4.336;2023-04-26T01:05:28;0.60;;;0.60;;
15490;SDS011;7847;50.930;4.336;2023-04-26T01:07:54;0.50;;;0.50;;
15490;SDS011;7847;50.930;4.336;2023-04-26T01:10:21;0.57;;;0.57;;
15490;SDS011;7847;50.930;4.336;2023-04-26T01:12:48;0.50;;;0.50;;
15490;SDS011;7847;50.930;4.336;2023-04-26T01:15:14;0.50;;;0.50;;
15490;SDS011;7847;50.930;4.336;2023-04-26T01:17:40;0.50;;;0.50;;
15490;SDS011;7847;50.930;4.336;2023-04-26T01:20:08;0.53;;;0.53;;
15490;SDS011;7847;50.930;4.336;2023-04-26T01:22:35;0.50;;;0.50;;
15490;SDS011;7847;50.930;4.336;2023-04-26T01:25:03;0.50;;;0.50;;
15490;SDS011;7847;50.930;4.336;2023-04-26T01:27:31;0.50;;;0.50;;
15490;SDS011;7847;50.930;4.336;2023-04-26T01:29:57;0.50;;;0.50;;
15490;SDS011;7847;50.930;4.336;2023-04-26T01:32:23;0.60;;;0.60;;
15490;SDS011;7847;50.930;4.336;2023-04-26T01:34:49;0.50;;;0.50;;
15490;SDS011;7847;50.930;4.336;2023-04-26T01:37:16;0.50;;;0.50;;
15490;SDS011;7847;50.930;4.336;2023-04-26T01:39:42;0.60;;;0.60;;
15490;SDS011;7847;50.930;4.336;2023-04-26T01:42:08;0.50;;;0.50;;
15490;SDS011;7847;50.930;4.336;2023-04-26T01:44:34;0.50;;;0.50;;
15490;SDS011;7847;50.930;4.336;2023-04-26T01:47:00;0.50;;;0.50;;
15490;SDS011;7847;50.930;4.336;2023-04-26T01:49:26;0.60;;;0.60;;
15490;SDS011;7847;50.930;4.336;2023-04-26T01:51:52;0.50;;;0.50;;
15490;SDS011;7847;50.930;4.336;2023-04-26T01:54:18;0.40;;;0.40;;
15490;SDS011;7847;50.930;4.336;2023-04-26T01:56:45;0.50;;;0.50;;
15490;SDS011;7847;50.930;4.336;2023-04-26T01:59:11;0.50;;;0.50;;
15490;SDS011;7847;50.930;4.336;2023-04-26T02:01:37;0.60;;;0.60;;
15490;SDS011;7847;50.930;4.336;2023-04-26T02:04:03;0.50;;;0.50;;
15490;SDS011;7847;50.930;4.336;2023-04-26T02:06:30;0.50;;;0.50;;
15490;SDS011;7847;50.930;4.336;2023-04-26T02:08:56;0.50;;;0.50;;
15490;SDS011;7847;50.930;4.336;2023-04-26T02:11:22;0.50;;;0.50;;
15490;SDS011;7847;50.930;4.336;2023-04-26T02:13:48;0.60;;;0.60;;
15490;SDS011;7847;50.930;4.336;2023-04-26T02:16:14;0.60;;;0.60;;
15490;SDS011;7847;50.930;4.336;2023-04-26T02:18:41;0.60;;;0.60;;
15490;SDS011;7847;50.930;4.336;2023-04-26T02:21:09;0.50;;;0.50;;
15490;SDS011;7847;50.930;4.336;2023-04-26T02:23:35;0.60;;;0.60;;
15490;SDS011;7847;50.930;4.336;2023-04-26T02:26:01;0.50;;;0.50;;
15490;SDS011;7847;50.930;4.336;2023-04-26T02:28:28;0.50;;;0.50;;
15490;SDS011;7847;50.930;4.336;2023-04-26T02:30:54;0.70;;;0.70;;
15490;SDS011;7847;50.930;4.336;2023-04-26T02:33:20;0.50;;;0.50;;
15490;SDS011;7847;50.930;4.336;2023-04-26T02:35:47;0.50;;;0.50;;
15490;SDS011;7847;50.930;4.336;2023-04-26T02:38:13;0.50;;;0.50;;
15490;SDS011;7847;50.930;4.336;2023-04-26T02:40:39;0.60;;;0.60;;
15490;SDS011;7847;50.930;4.336;2023-04-26T02:43:05;0.50;;;0.50;;
15490;SDS011;7847;50.930;4.336;2023-04-26T02:45:32;0.60;;;0.60;;
15490;SDS011;7847;50.930;4.336;2023-04-26T02:47:58;0.60;;;0.60;;
15490;SDS011;7847;50.930;4.336;2023-04-26T02:50:25;0.70;;;0.70;;
15490;SDS011;7847;50.930;4.336;2023-04-26T02:52:51;0.70;;;0.70;;
15490;SDS011;7847;50.930;4.336;2023-04-26T02:55:17;0.50;;;0.50;;
15490;SDS011;7847;50.930;4.336;2023-04-26T02:57:43;0.50;;;0.50;;
15490;SDS011;7847;50.930;4.336;2023-04-26T03:00:10;0.60;;;0.60;;
15490;SDS011;7847;50.930;4.336;2023-04-26T03:02:37;0.60;;;0.60;;
15490;SDS011;7847;50.930;4.336;2023-04-26T03:05:04;0.50;;;0.50;;
15490;SDS011;7847;50.930;4.336;2023-04-26T03:07:30;0.60;;;0.60;;
15490;SDS011;7847;50.930;4.336;2023-04-26T03:09:57;0.50;;;0.50;;
15490;SDS011;7847;50.930;4.336;2023-04-26T03:12:23;0.50;;;0.50;;
15490;SDS011;7847;50.930;4.336;2023-04-26T03:14:49;0.50;;;0.50;;
15490;SDS011;7847;50.930;4.336;2023-04-26T03:17:15;0.50;;;0.50;;
15490;SDS011;7847;50.930;4.336;2023-04-26T03:19:41;0.50;;;0.50;;
15490;SDS011;7847;50.930;4.336;2023-04-26T03:22:07;0.60;;;0.60;;
15490;SDS011;7847;50.930;4.336;2023-04-26T03:24:35;0.50;;;0.50;;
15490;SDS011;7847;50.930;4.336;2023-04-26T03:27:01;0.50;;;0.50;;
15490;SDS011;7847;50.930;4.336;2023-04-26T03:29:27;0.60;;;0.60;;
15490;SDS011;7847;50.930;4.336;2023-04-26T03:31:53;0.60;;;0.60;;
15490;SDS011;7847;50.930;4.336;2023-04-26T03:34:19;0.60;;;0.60;;
15490;SDS011;7847;50.930;4.336;2023-04-26T03:36:46;0.60;;;0.60;;
15490;SDS011;7847;50.930;4.336;2023-04-26T03:39:12;0.60;;;0.60;;
15490;SDS011;7847;50.930;4.336;2023-04-26T03:41:38;0.50;;;0.50;;
15490;SDS011;7847;50.930;4.336;2023-04-26T03:44:04;0.50;;;0.50;;
15490;SDS011;7847;50.930;4.336;2023-04-26T03:46:30;0.60;;;0.60;;
15490;SDS011;7847;50.930;4.336;2023-04-26T03:48:56;0.57;;;0.57;;
15490;SDS011;7847;50.930;4.336;2023-04-26T03:51:22;0.50;;;0.50;;
15490;SDS011;7847;50.930;4.336;2023-04-26T03:53:48;0.60;;;0.60;;
15490;SDS011;7847;50.930;4.336;2023-04-26T03:56:15;0.50;;;0.50;;
15490;SDS011;7847;50.930;4.336;2023-04-26T03:58:41;0.50;;;0.50;;
15490;SDS011;7847;50.930;4.336;2023-04-26T04:01:07;0.57;;;0.57;;
15490;SDS011;7847;50.930;4.336;2023-04-26T04:03:33;0.50;;;0.50;;
15490;SDS011;7847;50.930;4.336;2023-04-26T04:06:00;0.50;;;0.50;;
15490;SDS011;7847;50.930;4.336;2023-04-26T04:08:26;0.60;;;0.60;;
15490;SDS011;7847;50.930;4.336;2023-04-26T04:10:52;0.50;;;0.50;;
15490;SDS011;7847;50.930;4.336;2023-04-26T04:13:18;0.40;;;0.40;;
15490;SDS011;7847;50.930;4.336;2023-04-26T04:15:44;0.40;;;0.40;;
15490;SDS011;7847;50.930;4.336;2023-04-26T04:18:11;0.40;;;0.40;;
15490;SDS011;7847;50.930;4.336;2023-04-26T04:20:37;0.60;;;0.60;;
15490;SDS011;7847;50.930;4.336;2023-04-26T04:23:03;0.60;;;0.60;;
15490;SDS011;7847;50.930;4.336;2023-04-26T04:25:31;0.47;;;0.47;;
15490;SDS011;7847;50.930;4.336;2023-04-26T04:27:58;0.40;;;0.40;;
15490;SDS011;7847;50.930;4.336;2023-04-26T04:30:26;0.50;;;0.50;;
15490;SDS011;7847;50.930;4.336;2023-04-26T04:32:53;0.60;;;0.60;;
15490;SDS011;7847;50.930;4.336;2023-04-26T04:35:21;0.60;;;0.60;;
15490;SDS011;7847;50.930;4.336;2023-04-26T04:37:49;0.40;;;0.40;;
15490;SDS011;7847;50.930;4.336;2023-04-26T04:40:15;0.40;;;0.40;;
15490;SDS011;7847;50.930;4.336;2023-04-26T04:42:41;0.50;;;0.50;;
15490;SDS011;7847;50.930;4.336;2023-04-26T04:45:09;0.50;;;0.50;;
15490;SDS011;7847;50.930;4.336;2023-04-26T04:47:35;0.50;;;0.50;;
15490;SDS011;7847;50.930;4.336;2023-04-26T04:50:03;0.60;;;0.60;;
15490;SDS011;7847;50.930;4.336;2023-04-26T04:52:29;0.50;;;0.50;;
15490;SDS011;7847;50.930;4.336;2023-04-26T04:54:57;0.60;;;0.60;;
15490;SDS011;7847;50.930;4.336;2023-04-26T04:57:23;0.50;;;0.50;;
15490;SDS011;7847;50.930;4.336;2023-04-26T04:59:49;0.60;;;0.60;;
15490;SDS011;7847;50.930;4.336;2023-04-26T05:02:15;0.60;;;0.60;;
15490;SDS011;7847;50.930;4.336;2023-04-26T05:04:41;0.50;;;0.50;;
15490;SDS011;7847;50.930;4.336;2023-04-26T05:07:07;0.50;;;0.50;;
15490;SDS011;7847;50.930;4.336;2023-04-26T05:09:33;0.47;;;0.47;;
15490;SDS011;7847;50.930;4.336;2023-04-26T05:12:01;0.57;;;0.57;;
15490;SDS011;7847;50.930;4.336;2023-04-26T05:14:28;0.50;;;0.50;;
15490;SDS011;7847;50.930;4.336;2023-04-26T05:16:54;0.50;;;0.50;;
15490;SDS011;7847;50.930;4.336;2023-04-26T05:19:21;0.50;;;0.50;;
15490;SDS011;7847;50.930;4.336;2023-04-26T05:21:47;0.50;;;0.50;;
15490;SDS011;7847;50.930;4.336;2023-04-26T05:24:13;0.50;;;0.50;;
15490;SDS011;7847;50.930;4.336;2023-04-26T05:26:39;0.50;;;0.50;;
15490;SDS011;7847;50.930;4.336;2023-04-26T05:29:05;0.43;;;0.43;;
15490;SDS011;7847;50.930;4.336;2023-04-26T05:31:32;0.40;;;0.40;;
15490;SDS011;7847;50.930;4.336;2023-04-26T05:33:58;0.50;;;0.50;;
15490;SDS011;7847;50.930;4.336;2023-04-26T05:36:24;0.50;;;0.50;;
15490;SDS011;7847;50.930;4.336;2023-04-26T05:38:50;0.50;;;0.50;;
15490;SDS011;7847;50.930;4.336;2023-04-26T05:41:16;0.50;;;0.50;;
15490;SDS011;7847;50.930;4.336;2023-04-26T05:43:43;0.50;;;0.50;;
15490;SDS011;7847;50.930;4.336;2023-04-26T05:46:09;0.50;;;0.50;;
15490;SDS011;7847;50.930;4.336;2023-04-26T05:48:35;0.50;;;0.50;;
15490;SDS011;7847;50.930;4.336;2023-04-26T05:51:01;0.60;;;0.60;;
15490;SDS011;7847;50.930;4.336;2023-04-26T05:53:27;0.50;;;0.50;;
15490;SDS011;7847;50.930;4.336;2023-04-26T05:55:53;0.40;;;0.40;;
15490;SDS011;7847;50.930;4.336;2023-04-26T05:58:19;0.50;;;0.50;;
15490;SDS011;7847;50.930;4.336;2023-04-26T06:00:45;0.50;;;0.50;;
15490;SDS011;7847;50.930;4.336;2023-04-26T06:03:11;0.50;;;0.50;;
15490;SDS011;7847;50.930;4.336;2023-04-26T06:05:37;0.40;;;0.40;;
15490;SDS011;7847;50.930;4.336;2023-04-26T06:08:04;0.40;;;0.40;;
15490;SDS011;7847;50.930;4.336;2023-04-26T06:10:30;0.50;;;0.50;;
15490;SDS011;7847;50.930;4.336;2023-04-26T06:12:56;0.40;;;0.40;;
15490;SDS011;7847;50.930;4.336;2023-04-26T06:15:22;0.50;;;0.50;;
15490;SDS011;7847;50.930;4.336;2023-04-26T06:17:48;0.50;;;0.50;;
15490;SDS011;7847;50.930;4.336;2023-04-26T06:20:15;0.40;;;0.40;;
15490;SDS011;7847;50.930;4.336;2023-04-26T06:22:41;0.50;;;0.50;;
15490;SDS011;7847;50.930;4.336;2023-04-26T06:25:07;0.50;;;0.50;;
15490;SDS011;7847;50.930;4.336;2023-04-26T06:27:33;0.40;;;0.40;;
15490;SDS011;7847;50.930;4.336;2023-04-26T06:29:59;0.40;;;0.40;;
15490;SDS011;7847;50.930;4.336;2023-04-26T06:32:25;0.40;;;0.40;;
15490;SDS011;7847;50.930;4.336;2023-04-26T06:34:51;0.40;;;0.40;;
15490;SDS011;7847;50.930;4.336;2023-04-26T06:37:17;0.40;;;0.40;;
15490;SDS011;7847;50.930;4.336;2023-04-26T06:39:44;0.40;;;0.40;;
15490;SDS011;7847;50.930;4.336;2023-04-26T06:42:10;0.40;;;0.40;;
15490;SDS011;7847;50.930;4.336;2023-04-26T06:44:36;0.40;;;0.40;;
15490;SDS011;7847;50.930;4.336;2023-04-26T06:47:02;0.40;;;0.40;;
15490;SDS011;7847;50.930;4.336;2023-04-26T06:49:28;0.40;;;0.40;;
15490;SDS011;7847;50.930;4.336;2023-04-26T06:51:54;0.47;;;0.47;;
15490;SDS011;7847;50.930;4.336;2023-04-26T06:54:20;0.30;;;0.30;;
15490;SDS011;7847;50.930;4.336;2023-04-26T06:56:46;0.40;;;0.40;;
15490;SDS011;7847;50.930;4.336;2023-04-26T06:59:12;0.40;;;0.40;;
15490;SDS011;7847;50.930;4.336;2023-04-26T07:01:38;0.40;;;0.40;;
15490;SDS011;7847;50.930;4.336;2023-04-26T07:04:05;0.40;;;0.40;;
15490;SDS011;7847;50.930;4.336;2023-04-26T07:06:32;0.40;;;0.40;;
15490;SDS011;7847;50.930;4.336;2023-04-26T07:08:58;0.40;;;0.40;;
15490;SDS011;7847;50.930;4.336;2023-04-26T07:11:25;0.40;;;0.40;;
15490;SDS011;7847;50.930;4.336;2023-04-26T07:13:51;0.40;;;0.40;;
15490;SDS011;7847;50.930;4.336;2023-04-26T07:16:17;0.40;;;0.40;;
15490;SDS011;7847;50.930;4.336;2023-04-26T07:18:43;0.40;;;0.40;;
15490;SDS011;7847;50.930;4.336;2023-04-26T07:21:12;0.40;;;0.40;;
15490;SDS011;7847;50.930;4.336;2023-04-26T07:23:38;0.40;;;0.40;;
15490;SDS011;7847;50.930;4.336;2023-04-26T07:26:04;0.30;;;0.30;;
15490;SDS011;7847;50.930;4.336;2023-04-26T07:28:31;0.40;;;0.40;;
15490;SDS011;7847;50.930;4.336;2023-04-26T07:30:57;0.50;;;0.50;;
15490;SDS011;7847;50.930;4.336;2023-04-26T07:33:23;0.37;;;0.37;;
15490;SDS011;7847;50.930;4.336;2023-04-26T07:35:53;0.40;;;0.40;;
15490;SDS011;7847;50.930;4.336;2023-04-26T07:38:22;0.40;;;0.40;;
15490;SDS011;7847;50.930;4.336;2023-04-26T07:40:48;0.30;;;0.30;;
15490;SDS011;7847;50.930;4.336;2023-04-26T07:43:15;0.30;;;0.30;;
15490;SDS011;7847;50.930;4.336;2023-04-26T07:45:41;0.30;;;0.30;;
15490;SDS011;7847;50.930;4.336;2023-04-26T07:48:08;0.30;;;0.30;;
15490;SDS011;7847;50.930;4.336;2023-04-26T07:50:34;0.40;;;0.40;;
15490;SDS011;7847;50.930;4.336;2023-04-26T07:53:00;0.37;;;0.37;;
15490;SDS011;7847;50.930;4.336;2023-04-26T07:55:26;0.40;;;0.40;;
15490;SDS011;7847;50.930;4.336;2023-04-26T07:57:53;0.40;;;0.40;;
15490;SDS011;7847;50.930;4.336;2023-04-26T08:00:19;0.30;;;0.30;;
15490;SDS011;7847;50.930;4.336;2023-04-26T08:02:47;0.30;;;0.30;;
15490;SDS011;7847;50.930;4.336;2023-04-26T08:05:13;0.30;;;0.30;;
15490;SDS011;7847;50.930;4.336;2023-04-26T08:07:42;0.30;;;0.30;;
15490;SDS011;7847;50.930;4.336;2023-04-26T08:10:09;0.40;;;0.40;;
15490;SDS011;7847;50.930;4.336;2023-04-26T08:12:35;0.30;;;0.30;;
15490;SDS011;7847;50.930;4.336;2023-04-26T08:15:02;0.30;;;0.30;;
15490;SDS011;7847;50.930;4.336;2023-04-26T08:17:29;0.30;;;0.30;;
15490;SDS011;7847;50.930;4.336;2023-04-26T08:19:56;0.30;;;0.30;;
15490;SDS011;7847;50.930;4.336;2023-04-26T08:22:22;0.40;;;0.40;;
15490;SDS011;7847;50.930;4.336;2023-04-26T08:24:48;0.30;;;0.30;;
15490;SDS011;7847;50.930;4.336;2023-04-26T08:27:18;0.30;;;0.30;;
15490;SDS011;7847;50.930;4.336;2023-04-26T08:29:44;0.30;;;0.30;;
15490;SDS011;7847;50.930;4.336;2023-04-26T08:32:11;0.30;;;0.30;;
15490;SDS011;7847;50.930;4.336;2023-04-26T08:34:37;0.30;;;0.30;;
15490;SDS011;7847;50.930;4.336;2023-04-26T08:37:03;0.30;;;0.30;;
15490;SDS011;7847;50.930;4.336;2023-04-26T08:39:29;0.30;;;0.30;;
15490;SDS011;7847;50.930;4.336;2023-04-26T08:41:55;0.30;;;0.30;;
15490;SDS011;7847;50.930;4.336;2023-04-26T08:44:24;0.30;;;0.30;;
15490;SDS011;7847;50.930;4.336;2023-04-26T08:46:59;0.30;;;0.30;;
15490;SDS011;7847;50.930;4.336;2023-04-26T08:51:51;0.30;;;0.30;;
15490;SDS011;7847;50.930;4.336;2023-04-26T08:54:18;0.30;;;0.30;;
15490;SDS011;7847;50.930;4.336;2023-04-26T08:56:45;0.40;;;0.40;;
15490;SDS011;7847;50.930;4.336;2023-04-26T08:59:11;0.30;;;0.30;;
15490;SDS011;7847;50.930;4.336;2023-04-26T09:01:38;0.30;;;0.30;;
15490;SDS011;7847;50.930;4.336;2023-04-26T09:04:05;0.40;;;0.40;;
15490;SDS011;7847;50.930;4.336;2023-04-26T09:06:32;0.30;;;0.30;;
15490;SDS011;7847;50.930;4.336;2023-04-26T09:08:58;0.30;;;0.30;;
15490;SDS011;7847;50.930;4.336;2023-04-26T09:11:28;0.37;;;0.37;;
15490;SDS011;7847;50.930;4.336;2023-04-26T09:13:55;0.30;;;0.30;;
15490;SDS011;7847;50.930;4.336;2023-04-26T09:16:36;0.30;;;0.30;;
15490;SDS011;7847;50.930;4.336;2023-04-26T09:19:02;0.30;;;0.30;;
15490;SDS011;7847;50.930;4.336;2023-04-26T09:21:28;0.40;;;0.40;;
15490;SDS011;7847;50.930;4.336;2023-04-26T09:23:56;0.30;;;0.30;;
15490;SDS011;7847;50.930;4.336;2023-04-26T09:26:23;0.30;;;0.30;;
15490;SDS011;7847;50.930;4.336;2023-04-26T09:28:51;0.30;;;0.30;;
15490;SDS011;7847;50.930;4.336;2023-04-26T09:31:36;0.30;;;0.30;;
15490;SDS011;7847;50.930;4.336;2023-04-26T09:34:02;0.30;;;0.30;;
15490;SDS011;7847;50.930;4.336;2023-04-26T09:36:29;0.30;;;0.30;;
15490;SDS011;7847;50.930;4.336;2023-04-26T09:38:55;0.30;;;0.30;;
15490;SDS011;7847;50.930;4.336;2023-04-26T09:41:21;0.30;;;0.30;;
15490;SDS011;7847;50.930;4.336;2023-04-26T09:43:49;0.30;;;0.30;;
15490;SDS011;7847;50.930;4.336;2023-04-26T09:46:22;0.30;;;0.30;;
15490;SDS011;7847;50.930;4.336;2023-04-26T09:48:59;0.30;;;0.30;;
15490;SDS011;7847;50.930;4.336;2023-04-26T09:51:25;0.30;;;0.30;;
15490;SDS011;7847;50.930;4.336;2023-04-26T09:53:52;0.30;;;0.30;;
15490;SDS011;7847;50.930;4.336;2023-04-26T09:56:18;0.30;;;0.30;;
15490;SDS011;7847;50.930;4.336;2023-04-26T10:01:16;0.33;;;0.33;;
15490;SDS011;7847;50.930;4.336;2023-04-26T10:03:42;0.30;;;0.30;;
15490;SDS011;7847;50.930;4.336;2023-04-26T10:06:09;0.30;;;0.30;;
15490;SDS011;7847;50.930;4.336;2023-04-26T10:08:35;0.30;;;0.30;;
15490;SDS011;7847;50.930;4.336;2023-04-26T10:11:04;0.30;;;0.30;;
15490;SDS011;7847;50.930;4.336;2023-04-26T10:13:32;0.30;;;0.30;;
15490;SDS011;7847;50.930;4.336;2023-04-26T10:16:01;0.30;;;0.30;;
15490;SDS011;7847;50.930;4.336;2023-04-26T10:18:28;0.30;;;0.30;;
15490;SDS011;7847;50.930;4.336;2023-04-26T10:20:56;0.30;;;0.30;;
15490;SDS011;7847;50.930;4.336;2023-04-26T10:23:23;0.40;;;0.40;;
15490;SDS011;7847;50.930;4.336;2023-04-26T10:25:52;0.30;;;0.30;;
15490;SDS011;7847;50.930;4.336;2023-04-26T10:31:04;0.40;;;0.40;;
15490;SDS011;7847;50.930;4.336;2023-04-26T10:33:32;0.30;;;0.30;;
15490;SDS011;7847;50.930;4.336;2023-04-26T10:36:02;0.30;;;0.30;;
15490;SDS011;7847;50.930;4.336;2023-04-26T10:38:29;0.40;;;0.40;;
15490;SDS011;7847;50.930;4.336;2023-04-26T10:41:04;0.30;;;0.30;;
15490;SDS011;7847;50.930;4.336;2023-04-26T10:43:41;0.30;;;0.30;;
15490;SDS011;7847;50.930;4.336;2023-04-26T10:46:31;0.30;;;0.30;;
15490;SDS011;7847;50.930;4.336;2023-04-26T10:48:57;0.30;;;0.30;;
15490;SDS011;7847;50.930;4.336;2023-04-26T10:51:23;0.30;;;0.30;;
15490;SDS011;7847;50.930;4.336;2023-04-26T10:59:08;0.30;;;0.30;;
15490;SDS011;7847;50.930;4.336;2023-04-26T11:01:35;0.30;;;0.30;;
15490;SDS011;7847;50.930;4.336;2023-04-26T11:04:08;0.30;;;0.30;;
15490;SDS011;7847;50.930;4.336;2023-04-26T11:06:47;0.30;;;0.30;;
15490;SDS011;7847;50.930;4.336;2023-04-26T11:09:32;0.20;;;0.20;;
15490;SDS011;7847;50.930;4.336;2023-04-26T11:12:00;0.30;;;0.30;;
15490;SDS011;7847;50.930;4.336;2023-04-26T11:14:26;0.30;;;0.30;;
15490;SDS011;7847;50.930;4.336;2023-04-26T11:16:53;0.20;;;0.20;;
15490;SDS011;7847;50.930;4.336;2023-04-26T11:19:19;0.30;;;0.30;;
15490;SDS011;7847;50.930;4.336;2023-04-26T11:21:45;0.30;;;0.30;;
15490;SDS011;7847;50.930;4.336;2023-04-26T11:24:13;0.20;;;0.20;;
15490;SDS011;7847;50.930;4.336;2023-04-26T11:26:39;0.20;;;0.20;;
15490;SDS011;7847;50.930;4.336;2023-04-26T11:29:06;0.20;;;0.20;;
15490;SDS011;7847;50.930;4.336;2023-04-26T11:31:34;0.30;;;0.30;;
15490;SDS011;7847;50.930;4.336;2023-04-26T11:34:03;0.25;;;0.25;;
15490;SDS011;7847;50.930;4.336;2023-04-26T11:36:29;0.30;;;0.30;;
15490;SDS011;7847;50.930;4.336;2023-04-26T11:38:57;0.30;;;0.30;;
15490;SDS011;7847;50.930;4.336;2023-04-26T11:41:24;0.20;;;0.20;;
15490;SDS011;7847;50.930;4.336;2023-04-26T11:43:50;0.30;;;0.30;;
15490;SDS011;7847;50.930;4.336;2023-04-26T11:46:16;0.30;;;0.30;;
15490;SDS011;7847;50.930;4.336;2023-04-26T11:48:45;0.30;;;0.30;;
15490;SDS011;7847;50.930;4.336;2023-04-26T11:51:11;0.30;;;0.30;;
15490;SDS011;7847;50.930;4.336;2023-04-26T11:53:38;0.30;;;0.30;;
15490;SDS011;7847;50.930;4.336;2023-04-26T11:56:11;0.30;;;0.30;;
15490;SDS011;7847;50.930;4.336;2023-04-26T11:58:39;0.30;;;0.30;;
15490;SDS011;7847;50.930;4.336;2023-04-26T12:01:05;0.30;;;0.30;;
15490;SDS011;7847;50.930;4.336;2023-04-26T12:03:32;0.27;;;0.27;;
15490;SDS011;7847;50.930;4.336;2023-04-26T12:06:02;0.30;;;0.30;;
15490;SDS011;7847;50.930;4.336;2023-04-26T12:08:28;0.30;;;0.30;;
15490;SDS011;7847;50.930;4.336;2023-04-26T12:10:58;0.30;;;0.30;;
15490;SDS011;7847;50.930;4.336;2023-04-26T12:13:25;0.30;;;0.30;;
15490;SDS011;7847;50.930;4.336;2023-04-26T12:15:51;0.30;;;0.30;;
15490;SDS011;7847;50.930;4.336;2023-04-26T12:18:18;0.30;;;0.30;;
15490;SDS011;7847;50.930;4.336;2023-04-26T12:20:44;0.30;;;0.30;;
15490;SDS011;7847;50.930;4.336;2023-04-26T12:23:14;0.30;;;0.30;;
15490;SDS011;7847;50.930;4.336;2023-04-26T12:25:41;0.30;;;0.30;;
15490;SDS011;7847;50.930;4.336;2023-04-26T12:28:16;0.30;;;0.30;;
15490;SDS011;7847;50.930;4.336;2023-04-26T12:30:42;0.30;;;0.30;;
15490;SDS011;7847;50.930;4.336;2023-04-26T12:33:08;0.20;;;0.20;;
15490;SDS011;7847;50.930;4.336;2023-04-26T12:35:35;0.28;;;0.28;;
15490;SDS011;7847;50.930;4.336;2023-04-26T12:38:01;0.30;;;0.30;;
15490;SDS011;7847;50.930;4.336;2023-04-26T12:40:27;0.30;;;0.30;;
15490;SDS011;7847;50.930;4.336;2023-04-26T12:42:54;0.30;;;0.30;;
15490;SDS011;7847;50.930;4.336;2023-04-26T12:45:20;0.30;;;0.30;;
15490;SDS011;7847;50.930;4.336;2023-04-26T12:47:47;0.30;;;0.30;;
15490;SDS011;7847;50.930;4.336;2023-04-26T12:50:14;0.30;;;0.30;;
15490;SDS011;7847;50.930;4.336;2023-04-26T12:52:41;0.30;;;0.30;;
15490;SDS011;7847;50.930;4.336;2023-04-26T12:55:08;0.30;;;0.30;;
15490;SDS011;7847;50.930;4.336;2023-04-26T12:57:35;0.30;;;0.30;;
15490;SDS011;7847;50.930;4.336;2023-04-26T13:00:02;0.30;;;0.30;;
15490;SDS011;7847;50.930;4.336;2023-04-26T13:02:28;0.30;;;0.30;;
15490;SDS011;7847;50.930;4.336;2023-04-26T13:04:54;0.30;;;0.30;;
15490;SDS011;7847;50.930;4.336;2023-04-26T13:07:21;0.30;;;0.30;;
15490;SDS011;7847;50.930;4.336;2023-04-26T13:09:47;0.30;;;0.30;;
15490;SDS011;7847;50.930;4.336;2023-04-26T13:12:13;0.30;;;0.30;;
15490;SDS011;7847;50.930;4.336;2023-04-26T13:14:39;0.20;;;0.20;;
15490;SDS011;7847;50.930;4.336;2023-04-26T13:17:06;0.20;;;0.20;;
15490;SDS011;7847;50.930;4.336;2023-04-26T13:19:36;0.25;;;0.25;;
15490;SDS011;7847;50.930;4.336;2023-04-26T13:22:02;0.20;;;0.20;;
15490;SDS011;7847;50.930;4.336;2023-04-26T13:24:29;0.30;;;0.30;;
15490;SDS011;7847;50.930;4.336;2023-04-26T13:26:55;0.20;;;0.20;;
15490;SDS011;7847;50.930;4.336;2023-04-26T13:29:22;0.20;;;0.20;;
15490;SDS011;7847;50.930;4.336;2023-04-26T13:31:48;0.30;;;0.30;;
15490;SDS011;7847;50.930;4.336;2023-04-26T13:34:14;0.30;;;0.30;;
15490;SDS011;7847;50.930;4.336;2023-04-26T13:36:40;0.30;;;0.30;;
15490;SDS011;7847;50.930;4.336;2023-04-26T13:39:06;0.30;;;0.30;;
15490;SDS011;7847;50.930;4.336;2023-04-26T13:41:33;0.20;;;0.20;;
15490;SDS011;7847;50.930;4.336;2023-04-26T13:44:00;0.30;;;0.30;;
15490;SDS011;7847;50.930;4.336;2023-04-26T13:46:26;0.20;;;0.20;;
15490;SDS011;7847;50.930;4.336;2023-04-26T13:48:52;0.30;;;0.30;;
15490;SDS011;7847;50.930;4.336;2023-04-26T13:51:19;0.20;;;0.20;;
15490;SDS011;7847;50.930;4.336;2023-04-26T13:53:45;0.30;;;0.30;;
15490;SDS011;7847;50.930;4.336;2023-04-26T13:56:11;0.20;;;0.20;;
15490;SDS011;7847;50.930;4.336;2023-04-26T13:58:39;0.30;;;0.30;;
15490;SDS011;7847;50.930;4.336;2023-04-26T14:01:05;0.30;;;0.30;;
15490;SDS011;7847;50.930;4.336;2023-04-26T14:03:31;0.30;;;0.30;;
15490;SDS011;7847;50.930;4.336;2023-04-26T14:05:57;0.20;;;0.20;;
15490;SDS011;7847;50.930;4.336;2023-04-26T14:08:23;0.30;;;0.30;;
15490;SDS011;7847;50.930;4.336;2023-04-26T14:10:49;0.30;;;0.30;;
15490;SDS011;7847;50.930;4.336;2023-04-26T14:13:16;0.20;;;0.20;;
15490;SDS011;7847;50.930;4.336;2023-04-26T14:15:42;0.30;;;0.30;;
15490;SDS011;7847;50.930;4.336;2023-04-26T14:18:08;0.25;;;0.25;;
15490;SDS011;7847;50.930;4.336;2023-04-26T14:20:35;0.30;;;0.30;;
15490;SDS011;7847;50.930;4.336;2023-04-26T14:23:01;0.20;;;0.20;;
15490;SDS011;7847;50.930;4.336;2023-04-26T14:25:27;0.30;;;0.30;;
15490;SDS011;7847;50.930;4.336;2023-04-26T14:27:53;0.20;;;0.20;;
15490;SDS011;7847;50.930;4.336;2023-04-26T14:30:19;0.20;;;0.20;;
15490;SDS011;7847;50.930;4.336;2023-04-26T14:32:45;0.30;;;0.30;;
15490;SDS011;7847;50.930;4.336;2023-04-26T14:35:11;0.30;;;0.30;;
15490;SDS011;7847;50.930;4.336;2023-04-26T14:37:37;0.30;;;0.30;;
15490;SDS011;7847;50.930;4.336;2023-04-26T14:40:04;0.30;;;0.30;;
15490;SDS011;7847;50.930;4.336;2023-04-26T14:42:32;0.30;;;0.30;;
15490;SDS011;7847;50.930;4.336;2023-04-26T14:44:58;0.23;;;0.23;;
15490;SDS011;7847;50.930;4.336;2023-04-26T14:47:24;0.27;;;0.27;;
15490;SDS011;7847;50.930;4.336;2023-04-26T14:49:50;0.28;;;0.28;;
15490;SDS011;7847;50.930;4.336;2023-04-26T14:52:17;0.30;;;0.30;;
15490;SDS011;7847;50.930;4.336;2023-04-26T14:54:43;0.30;;;0.30;;
15490;SDS011;7847;50.930;4.336;2023-04-26T14:57:09;0.30;;;0.30;;
15490;SDS011;7847;50.930;4.336;2023-04-26T14:59:35;0.30;;;0.30;;
15490;SDS011;7847;50.930;4.336;2023-04-26T15:02:02;0.30;;;0.30;;
15490;SDS011;7847;50.930;4.336;2023-04-26T15:04:28;0.30;;;0.30;;
15490;SDS011;7847;50.930;4.336;2023-04-26T15:06:55;0.30;;;0.30;;
15490;SDS011;7847;50.930;4.336;2023-04-26T15:09:21;0.20;;;0.20;;
15490;SDS011;7847;50.930;4.336;2023-04-26T15:11:47;0.30;;;0.30;;